De Beque, CO (81630)

8:01 PM MDT on May 03, 2015 (GMT -0600)
CODOT | | Change Station
CLOSE
Current Station
Personal Weather Station
Location: De Beque, CO
Elevation: 4792 ft
Nearby Weather Stations

Elev 4792 ft 39.24 °N, 108.27 °W | Updated 50 minutes ago

Overcast
Overcast
70 °F
Feels Like 70 °F
N
6
Wind Variable Wind from WSW
Gusts 8.0 mph

Today
High -- | Low -- °F
--% Chance of Precip.
Yesterday
High -- | Low -- °F
Precip. -- in
6:12 AM 8:08 PM
Full, 100% visible
Pressure 29.77 in
Visibility 10.0 miles
Clouds Few 6000 ft
Mostly Cloudy 9500 ft
Overcast 11000 ft
Dew Point 44 °F
Humidity 39%
Rainfall in
Snow Depth Not available.
UV 0 out of 12
Pollen 9.50 out of 12
Air Quality Not available.
Flu Activity Sporadic
METAR KGJT 040153Z 22011KT 10SM FEW060 BKN095 OVC110 19/01 A2992 RMK AO2 RAB03E17 SLP081 VCSH P0000 T01940011

More Conditions Fewer Conditions

Pressure 29.77 in
Visibility 10.0 miles
Clouds Few 6000 ft
Mostly Cloudy 9500 ft
Overcast 11000 ft
Dew Point 44 °F
Humidity 39%
Rainfall in
Snow Depth Not available.
UV 0 out of 12
Pollen 9.50 out of 12
Air Quality Not available.
Flu Activity Sporadic
METAR KGJT 040153Z 22011KT 10SM FEW060 BKN095 OVC110 19/01 A2992 RMK AO2 RAB03E17 SLP081 VCSH P0000 T01940011

More Conditions Fewer Conditions

Nepal has a long way to go to dig out and rebuild from a devastating earthquake. We have teamed up with several charities and organizations to make contributing to the relief effort as easy as possible.
How you can help: Portlight Strategies | Red Cross

10-Day Weather Forecast

Almanac

Astronomy

May. 03, 2015 Rise Set
Actual Time
Civil Twilight
Nautical Twilight
Astronomical Twilight
Moon
Length of Visible Light
Length of Day
Tomorrow will be .
, % of the Moon is Illuminated

Today's Extremes

State Highs State Lows

Community

WunderPhotos

Upload Photos

1,818,464 photos uploaded!

WunderBlogs® & News

Nearby

Air Quality

  Air Quality AQ Index Pollutant
Not available.

Snow Depth

Station Depth Elevation

Earthquake Activity

City Distance Mag. Time & Date
Minimum magnitude displayed is 2.5.

Coastal Water Temperatures

Place Temperature

Stations

Nearby Weather Stations

Station Location Temp. Windchill Dew Point Humidity Wind Precip. Elev Updated Type